CPA005 RCTP-VHHH
Flight info
| Callsign | CPA005 |
|---|---|
| Flight time | 1h 16m |
| Altitude | 38000 |
| Route | CHALI1A CHALI T3 MKG A1 ELATO V522 ABBEY |
| Aircraft | B748/H-SDE3FGHIM1M2RWXY/LB1 |
Departure
| Time | 2026-05-08 04:11 |
|---|---|
| Airport | Taiwan Taoyuan International Airport (RCTP) |
Arrival
| Time | 2026-05-08 05:28 |
|---|---|
| Airport | Hong Kong International Airport (VHHH) |
| Time | Latitude | Longitude | Altitude | Speed | Heading |
|---|---|---|---|---|---|
| 2026-05-08 02:51 | 25.08822 | 121.24065 | 121 ft | 0 kts | 139° |
| 2026-05-08 03:50 | 25.08826 | 121.24061 | 121 ft | 2 kts | 139° |
| 2026-05-08 03:51 | 25.08838 | 121.24049 | 121 ft | 2 kts | 139° |
| 2026-05-08 03:51 | 25.08851 | 121.24038 | 121 ft | 2 kts | 142° |
| 2026-05-08 03:51 | 25.08865 | 121.24030 | 121 ft | 2 kts | 169° |
| 2026-05-08 03:51 | 25.08881 | 121.24030 | 121 ft | 2 kts | 199° |
| 2026-05-08 03:52 | 25.08892 | 121.24037 | 121 ft | 1 kts | 220° |
| 2026-05-08 03:52 | 25.08893 | 121.24038 | 121 ft | 0 kts | 220° |
| 2026-05-08 03:56 | 25.08890 | 121.24035 | 121 ft | 2 kts | 220° |
| 2026-05-08 03:56 | 25.08880 | 121.24017 | 121 ft | 4 kts | 253° |
| 2026-05-08 03:56 | 25.08868 | 121.23971 | 121 ft | 9 kts | 253° |
| 2026-05-08 03:57 | 25.08846 | 121.23904 | 121 ft | 9 kts | 239° |
| 2026-05-08 03:57 | 25.08820 | 121.23868 | 121 ft | 10 kts | 230° |
| 2026-05-08 03:57 | 25.08760 | 121.23791 | 121 ft | 17 kts | 229° |
| 2026-05-08 03:57 | 25.08633 | 121.23630 | 121 ft | 22 kts | 229° |
| 2026-05-08 03:58 | 25.08568 | 121.23547 | 121 ft | 21 kts | 229° |
| 2026-05-08 03:58 | 25.08442 | 121.23386 | 121 ft | 20 kts | 227° |
| 2026-05-08 03:58 | 25.08381 | 121.23311 | 121 ft | 19 kts | 228° |
| 2026-05-08 03:58 | 25.08295 | 121.23200 | 121 ft | 19 kts | 229° |
| 2026-05-08 03:59 | 25.08213 | 121.23096 | 121 ft | 18 kts | 229° |
| 2026-05-08 03:59 | 25.08134 | 121.22997 | 121 ft | 17 kts | 229° |
| 2026-05-08 03:59 | 25.08060 | 121.22903 | 121 ft | 16 kts | 229° |
| 2026-05-08 03:59 | 25.07977 | 121.22799 | 121 ft | 21 kts | 230° |
| 2026-05-08 04:00 | 25.07879 | 121.22672 | 121 ft | 23 kts | 229° |
| 2026-05-08 04:00 | 25.07767 | 121.22530 | 121 ft | 26 kts | 229° |
| 2026-05-08 04:00 | 25.07644 | 121.22375 | 121 ft | 28 kts | 229° |
| 2026-05-08 04:00 | 25.07521 | 121.22218 | 121 ft | 26 kts | 229° |
| 2026-05-08 04:01 | 25.07411 | 121.22077 | 121 ft | 23 kts | 229° |
| 2026-05-08 04:01 | 25.07308 | 121.21947 | 121 ft | 22 kts | 229° |
| 2026-05-08 04:01 | 25.07220 | 121.21836 | 121 ft | 15 kts | 229° |
| 2026-05-08 04:01 | 25.07167 | 121.21773 | 121 ft | 7 kts | 209° |
| 2026-05-08 04:02 | 25.07119 | 121.21779 | 121 ft | 7 kts | 150° |
| 2026-05-08 04:02 | 25.07090 | 121.21820 | 121 ft | 7 kts | 91° |
| 2026-05-08 04:02 | 25.07118 | 121.21871 | 121 ft | 10 kts | 51° |
| 2026-05-08 04:02 | 25.07176 | 121.21945 | 121 ft | 15 kts | 48° |
| 2026-05-08 04:03 | 25.07257 | 121.22046 | 121 ft | 20 kts | 49° |
| 2026-05-08 04:03 | 25.07481 | 121.22329 | 121 ft | 27 kts | 49° |
| 2026-05-08 04:03 | 25.07596 | 121.22475 | 121 ft | 24 kts | 49° |
| 2026-05-08 04:04 | 25.07683 | 121.22587 | 121 ft | 15 kts | 49° |
| 2026-05-08 04:04 | 25.07728 | 121.22657 | 121 ft | 9 kts | 78° |
| 2026-05-08 04:04 | 25.07696 | 121.22716 | 121 ft | 9 kts | 140° |
| 2026-05-08 04:04 | 25.07628 | 121.22777 | 121 ft | 18 kts | 140° |
| 2026-05-08 04:05 | 25.07504 | 121.22896 | 121 ft | 29 kts | 137° |
| 2026-05-08 04:05 | 25.07358 | 121.23035 | 121 ft | 26 kts | 139° |
| 2026-05-08 04:05 | 25.07232 | 121.23155 | 121 ft | 21 kts | 139° |
| 2026-05-08 04:05 | 25.07145 | 121.23236 | 121 ft | 12 kts | 140° |
| 2026-05-08 04:06 | 25.07089 | 121.23278 | 121 ft | 9 kts | 179° |
| 2026-05-08 04:06 | 25.07042 | 121.23242 | 121 ft | 8 kts | 228° |
| 2026-05-08 04:06 | 25.06979 | 121.23163 | 121 ft | 19 kts | 229° |
| 2026-05-08 04:06 | 25.06867 | 121.23020 | 121 ft | 27 kts | 229° |
| 2026-05-08 04:07 | 25.06752 | 121.22873 | 121 ft | 24 kts | 228° |
| 2026-05-08 04:07 | 25.06646 | 121.22741 | 121 ft | 22 kts | 229° |
| 2026-05-08 04:07 | 25.06546 | 121.22613 | 121 ft | 21 kts | 229° |
| 2026-05-08 04:07 | 25.06451 | 121.22491 | 121 ft | 21 kts | 229° |
| 2026-05-08 04:08 | 25.06366 | 121.22384 | 121 ft | 16 kts | 229° |
| 2026-05-08 04:08 | 25.06305 | 121.22307 | 121 ft | 13 kts | 229° |
| 2026-05-08 04:08 | 25.06258 | 121.22249 | 121 ft | 8 kts | 221° |
| 2026-05-08 04:08 | 25.06212 | 121.22225 | 121 ft | 7 kts | 189° |
| 2026-05-08 04:09 | 25.06166 | 121.22239 | 121 ft | 7 kts | 143° |
| 2026-05-08 04:09 | 25.06130 | 121.22273 | 121 ft | 7 kts | 138° |
| 2026-05-08 04:09 | 25.06095 | 121.22307 | 121 ft | 7 kts | 137° |
| 2026-05-08 04:09 | 25.06085 | 121.22351 | 121 ft | 6 kts | 64° |
| 2026-05-08 04:10 | 25.06113 | 121.22389 | 121 ft | 6 kts | 47° |
| 2026-05-08 04:10 | 25.06164 | 121.22452 | 121 ft | 22 kts | 49° |
| 2026-05-08 04:10 | 25.06366 | 121.22709 | 121 ft | 70 kts | 49° |
| 2026-05-08 04:10 | 25.06797 | 121.23256 | 121 ft | 116 kts | 49° |
| 2026-05-08 04:11 | 25.07407 | 121.24029 | 140 ft | 147 kts | 49° |
| 2026-05-08 04:11 | 25.08074 | 121.24898 | 470 ft | 149 kts | 50° |
| 2026-05-08 04:11 | 25.08728 | 121.25785 | 907 ft | 150 kts | 49° |
| 2026-05-08 04:11 | 25.09409 | 121.26667 | 1315 ft | 153 kts | 48° |
| 2026-05-08 04:12 | 25.10128 | 121.27573 | 1546 ft | 167 kts | 47° |
| 2026-05-08 04:12 | 25.10940 | 121.28579 | 1697 ft | 188 kts | 47° |
| 2026-05-08 04:12 | 25.11889 | 121.29716 | 2037 ft | 206 kts | 41° |
| 2026-05-08 04:12 | 25.13223 | 121.30419 | 2377 ft | 229 kts | 11° |
| 2026-05-08 04:13 | 25.14842 | 121.30182 | 2793 ft | 250 kts | 342° |
| 2026-05-08 04:13 | 25.16307 | 121.29072 | 3513 ft | 262 kts | 323° |
| 2026-05-08 04:13 | 25.17595 | 121.27595 | 4313 ft | 270 kts | 316° |
| 2026-05-08 04:13 | 25.18800 | 121.25988 | 5254 ft | 273 kts | 311° |
| 2026-05-08 04:14 | 25.19991 | 121.24338 | 6128 ft | 278 kts | 310° |
| 2026-05-08 04:14 | 25.21226 | 121.22669 | 6968 ft | 283 kts | 310° |
| 2026-05-08 04:14 | 25.22507 | 121.20983 | 7783 ft | 289 kts | 311° |
| 2026-05-08 04:14 | 25.23855 | 121.19304 | 8597 ft | 295 kts | 312° |
| 2026-05-08 04:15 | 25.25251 | 121.17612 | 9428 ft | 299 kts | 311° |
| 2026-05-08 04:15 | 25.26625 | 121.15886 | 10286 ft | 301 kts | 305° |
| 2026-05-08 04:15 | 25.27545 | 121.13764 | 10689 ft | 317 kts | 283° |
| 2026-05-08 04:15 | 25.27654 | 121.11254 | 10890 ft | 340 kts | 261° |
| 2026-05-08 04:16 | 25.26840 | 121.08800 | 11462 ft | 351 kts | 239° |
| 2026-05-08 04:16 | 25.25218 | 121.06793 | 12343 ft | 354 kts | 220° |
| 2026-05-08 04:16 | 25.23228 | 121.05151 | 13161 ft | 359 kts | 221° |
| 2026-05-08 04:16 | 25.21381 | 121.03267 | 13962 ft | 363 kts | 227° |
| 2026-05-08 04:17 | 25.19713 | 121.01152 | 14775 ft | 368 kts | 230° |
| 2026-05-08 04:17 | 25.17947 | 120.99073 | 15572 ft | 373 kts | 227° |
| 2026-05-08 04:17 | 25.16074 | 120.97048 | 16388 ft | 378 kts | 226° |
| 2026-05-08 04:17 | 25.14156 | 120.95030 | 17176 ft | 383 kts | 225° |
| 2026-05-08 04:18 | 25.12217 | 120.92984 | 17929 ft | 388 kts | 226° |
| 2026-05-08 04:18 | 25.10303 | 120.90917 | 18667 ft | 393 kts | 226° |
| 2026-05-08 04:18 | 25.08335 | 120.88790 | 19392 ft | 398 kts | 226° |
| 2026-05-08 04:18 | 25.06343 | 120.86640 | 20125 ft | 403 kts | 226° |
| 2026-05-08 04:19 | 25.04325 | 120.84465 | 20819 ft | 408 kts | 226° |
| 2026-05-08 04:19 | 25.02285 | 120.82268 | 21528 ft | 412 kts | 227° |
| 2026-05-08 04:19 | 25.00220 | 120.80046 | 22174 ft | 418 kts | 227° |
| 2026-05-08 04:19 | 24.98128 | 120.77796 | 22851 ft | 422 kts | 227° |
| 2026-05-08 04:20 | 24.96015 | 120.75521 | 23481 ft | 427 kts | 227° |
| 2026-05-08 04:20 | 24.93887 | 120.73206 | 24105 ft | 432 kts | 227° |
| 2026-05-08 04:20 | 24.91732 | 120.70877 | 24745 ft | 436 kts | 227° |
| 2026-05-08 04:20 | 24.89555 | 120.68535 | 25392 ft | 440 kts | 227° |
| 2026-05-08 04:21 | 24.87354 | 120.66172 | 26019 ft | 444 kts | 227° |
| 2026-05-08 04:21 | 24.85132 | 120.63790 | 26641 ft | 448 kts | 227° |
| 2026-05-08 04:21 | 24.82890 | 120.61387 | 27260 ft | 452 kts | 227° |
| 2026-05-08 04:21 | 24.80629 | 120.58966 | 27856 ft | 456 kts | 227° |
| 2026-05-08 04:22 | 24.78343 | 120.56519 | 28434 ft | 459 kts | 227° |
| 2026-05-08 04:22 | 24.76043 | 120.54058 | 28995 ft | 463 kts | 228° |
| 2026-05-08 04:22 | 24.73702 | 120.51602 | 29501 ft | 469 kts | 225° |
| 2026-05-08 04:22 | 24.71149 | 120.49322 | 29941 ft | 476 kts | 221° |
| 2026-05-08 04:23 | 24.68449 | 120.47196 | 30462 ft | 479 kts | 218° |
| 2026-05-08 04:23 | 24.65665 | 120.45144 | 30978 ft | 482 kts | 218° |
| 2026-05-08 04:23 | 24.62870 | 120.43084 | 31427 ft | 484 kts | 218° |
| 2026-05-08 04:23 | 24.60075 | 120.40993 | 31841 ft | 486 kts | 219° |
| 2026-05-08 04:24 | 24.57278 | 120.38887 | 32239 ft | 489 kts | 219° |
| 2026-05-08 04:24 | 24.54474 | 120.36771 | 32707 ft | 488 kts | 219° |
| 2026-05-08 04:24 | 24.51686 | 120.34668 | 33377 ft | 483 kts | 219° |
| 2026-05-08 04:24 | 24.48952 | 120.32605 | 33930 ft | 481 kts | 219° |
| 2026-05-08 04:25 | 24.46194 | 120.30526 | 34381 ft | 480 kts | 219° |
| 2026-05-08 04:25 | 24.43453 | 120.28434 | 34760 ft | 479 kts | 220° |
| 2026-05-08 04:25 | 24.40741 | 120.26318 | 35135 ft | 479 kts | 220° |
| 2026-05-08 04:25 | 24.38020 | 120.24197 | 35487 ft | 479 kts | 220° |
| 2026-05-08 04:26 | 24.35298 | 120.22085 | 35860 ft | 478 kts | 220° |
| 2026-05-08 04:26 | 24.32580 | 120.19982 | 36203 ft | 478 kts | 220° |
| 2026-05-08 04:26 | 24.29854 | 120.17876 | 36494 ft | 479 kts | 220° |
| 2026-05-08 04:26 | 24.27165 | 120.15799 | 36827 ft | 478 kts | 220° |
| 2026-05-08 04:27 | 24.24448 | 120.13702 | 37132 ft | 478 kts | 220° |
| 2026-05-08 04:27 | 24.21732 | 120.11607 | 37391 ft | 478 kts | 220° |
| 2026-05-08 04:27 | 24.19012 | 120.09509 | 37721 ft | 477 kts | 220° |
| 2026-05-08 04:27 | 24.16295 | 120.07416 | 37968 ft | 478 kts | 220° |
| 2026-05-08 04:28 | 24.10863 | 120.03208 | 38012 ft | 477 kts | 220° |
| 2026-05-08 04:28 | 24.05436 | 119.99013 | 38008 ft | 477 kts | 220° |
| 2026-05-08 04:29 | 24.00007 | 119.94820 | 38004 ft | 477 kts | 220° |
| 2026-05-08 04:29 | 23.94574 | 119.90638 | 38000 ft | 477 kts | 220° |
| 2026-05-08 04:30 | 23.89140 | 119.86461 | 37997 ft | 477 kts | 220° |
| 2026-05-08 04:30 | 23.83707 | 119.82269 | 37996 ft | 477 kts | 220° |
| 2026-05-08 04:31 | 23.78319 | 119.78118 | 37994 ft | 477 kts | 220° |
| 2026-05-08 04:31 | 23.72873 | 119.73940 | 37995 ft | 478 kts | 220° |
| 2026-05-08 04:32 | 23.67425 | 119.69767 | 37994 ft | 479 kts | 220° |
| 2026-05-08 04:32 | 23.61979 | 119.65578 | 37990 ft | 477 kts | 224° |
| 2026-05-08 04:33 | 23.57604 | 119.60281 | 37993 ft | 469 kts | 238° |
| 2026-05-08 04:33 | 23.53987 | 119.54398 | 37993 ft | 464 kts | 242° |
| 2026-05-08 04:34 | 23.50613 | 119.48472 | 37994 ft | 464 kts | 243° |
| 2026-05-08 04:34 | 23.47178 | 119.42516 | 37993 ft | 464 kts | 242° |
| 2026-05-08 04:35 | 23.43717 | 119.36556 | 37992 ft | 465 kts | 242° |
| 2026-05-08 04:35 | 23.40254 | 119.30595 | 37992 ft | 465 kts | 242° |
| 2026-05-08 04:36 | 23.36807 | 119.24636 | 37991 ft | 465 kts | 242° |
| 2026-05-08 04:36 | 23.33340 | 119.18676 | 37992 ft | 466 kts | 242° |
| 2026-05-08 04:37 | 23.29859 | 119.12708 | 37991 ft | 467 kts | 242° |
| 2026-05-08 04:37 | 23.26371 | 119.06738 | 37991 ft | 467 kts | 242° |
| 2026-05-08 04:38 | 23.22907 | 119.00816 | 37990 ft | 467 kts | 242° |
| 2026-05-08 04:38 | 23.19406 | 118.94838 | 37991 ft | 468 kts | 242° |
| 2026-05-08 04:39 | 23.15907 | 118.88871 | 37991 ft | 468 kts | 242° |
| 2026-05-08 04:39 | 23.12409 | 118.82904 | 37991 ft | 468 kts | 242° |
| 2026-05-08 04:40 | 23.08913 | 118.76930 | 37991 ft | 468 kts | 242° |
| 2026-05-08 04:40 | 23.05428 | 118.71013 | 37991 ft | 468 kts | 242° |
| 2026-05-08 04:41 | 23.01913 | 118.65059 | 37992 ft | 468 kts | 242° |
| 2026-05-08 04:41 | 22.98393 | 118.59099 | 37992 ft | 469 kts | 242° |
| 2026-05-08 04:42 | 22.94871 | 118.53136 | 37993 ft | 469 kts | 242° |
| 2026-05-08 04:42 | 22.91328 | 118.47189 | 37987 ft | 469 kts | 242° |
| 2026-05-08 04:43 | 22.87782 | 118.41241 | 37988 ft | 469 kts | 242° |
| 2026-05-08 04:43 | 22.84835 | 118.36301 | 37987 ft | 470 kts | 242° |
| 2026-05-08 04:44 | 22.80710 | 118.29391 | 37987 ft | 470 kts | 242° |
| 2026-05-08 04:44 | 22.77753 | 118.24435 | 37988 ft | 471 kts | 242° |
| 2026-05-08 04:45 | 22.74220 | 118.18455 | 37970 ft | 471 kts | 242° |
| 2026-05-08 04:45 | 22.70654 | 118.12490 | 37968 ft | 471 kts | 241° |
| 2026-05-08 04:46 | 22.67078 | 118.06528 | 37968 ft | 472 kts | 241° |
| 2026-05-08 04:46 | 22.63501 | 118.00567 | 37975 ft | 472 kts | 241° |
| 2026-05-08 04:47 | 22.59925 | 117.94606 | 37975 ft | 472 kts | 242° |
| 2026-05-08 04:47 | 22.56365 | 117.88631 | 37979 ft | 472 kts | 242° |
| 2026-05-08 04:48 | 22.52802 | 117.82657 | 37979 ft | 472 kts | 242° |
| 2026-05-08 04:48 | 22.49255 | 117.76679 | 37979 ft | 472 kts | 242° |
| 2026-05-08 04:49 | 22.45704 | 117.70710 | 37978 ft | 472 kts | 242° |
| 2026-05-08 04:49 | 22.42159 | 117.64784 | 37977 ft | 472 kts | 242° |
| 2026-05-08 04:50 | 22.38586 | 117.58819 | 37976 ft | 472 kts | 242° |
| 2026-05-08 04:50 | 22.35072 | 117.52830 | 37966 ft | 469 kts | 248° |
| 2026-05-08 04:51 | 22.34013 | 117.49521 | 37980 ft | 464 kts | 261° |
| 2026-05-08 04:51 | 22.33470 | 117.46099 | 37976 ft | 460 kts | 266° |
| 2026-05-08 04:51 | 22.33012 | 117.39253 | 37974 ft | 455 kts | 271° |
| 2026-05-08 04:52 | 22.32921 | 117.32442 | 37974 ft | 453 kts | 272° |
| 2026-05-08 04:52 | 22.32823 | 117.25643 | 37974 ft | 453 kts | 272° |
| 2026-05-08 04:53 | 22.32700 | 117.18833 | 37973 ft | 453 kts | 272° |
| 2026-05-08 04:53 | 22.32570 | 117.12033 | 37973 ft | 453 kts | 272° |
| 2026-05-08 04:54 | 22.32462 | 117.05231 | 37972 ft | 452 kts | 272° |
| 2026-05-08 04:54 | 22.32338 | 116.98483 | 37972 ft | 451 kts | 272° |
| 2026-05-08 04:55 | 22.32203 | 116.91669 | 37971 ft | 452 kts | 272° |
| 2026-05-08 04:55 | 22.32064 | 116.84923 | 37971 ft | 452 kts | 272° |
| 2026-05-08 04:56 | 22.31921 | 116.78143 | 37971 ft | 451 kts | 272° |
| 2026-05-08 04:56 | 22.31775 | 116.71363 | 37971 ft | 451 kts | 272° |
| 2026-05-08 04:57 | 22.31626 | 116.64583 | 37967 ft | 452 kts | 272° |
| 2026-05-08 04:57 | 22.31474 | 116.57806 | 37963 ft | 451 kts | 272° |
| 2026-05-08 04:58 | 22.31320 | 116.51035 | 37963 ft | 451 kts | 272° |
| 2026-05-08 04:58 | 22.31163 | 116.44254 | 37818 ft | 452 kts | 272° |
| 2026-05-08 04:59 | 22.31083 | 116.40855 | 37421 ft | 453 kts | 271° |
| 2026-05-08 04:59 | 22.31002 | 116.37440 | 36741 ft | 456 kts | 271° |
| 2026-05-08 04:59 | 22.30920 | 116.34010 | 36051 ft | 457 kts | 271° |
| 2026-05-08 04:59 | 22.30837 | 116.30568 | 35384 ft | 460 kts | 271° |
| 2026-05-08 05:00 | 22.30753 | 116.27125 | 34868 ft | 457 kts | 270° |
| 2026-05-08 05:00 | 22.30670 | 116.23744 | 34358 ft | 454 kts | 270° |
| 2026-05-08 05:00 | 22.30585 | 116.20306 | 33842 ft | 451 kts | 270° |
| 2026-05-08 05:00 | 22.30504 | 116.16979 | 33345 ft | 448 kts | 270° |
| 2026-05-08 05:01 | 22.30432 | 116.13626 | 32844 ft | 446 kts | 269° |
| 2026-05-08 05:01 | 22.30352 | 116.10292 | 32343 ft | 444 kts | 269° |
| 2026-05-08 05:01 | 22.30266 | 116.06969 | 31841 ft | 441 kts | 269° |
| 2026-05-08 05:01 | 22.30179 | 116.03665 | 31341 ft | 439 kts | 269° |
| 2026-05-08 05:02 | 22.30090 | 116.00382 | 30839 ft | 437 kts | 268° |
| 2026-05-08 05:02 | 22.30001 | 115.97095 | 30338 ft | 434 kts | 268° |
| 2026-05-08 05:02 | 22.29912 | 115.93850 | 29841 ft | 431 kts | 268° |
| 2026-05-08 05:02 | 22.29823 | 115.90624 | 29342 ft | 429 kts | 268° |
| 2026-05-08 05:03 | 22.29734 | 115.87408 | 28840 ft | 426 kts | 268° |
| 2026-05-08 05:03 | 22.29647 | 115.84220 | 28341 ft | 424 kts | 268° |
| 2026-05-08 05:03 | 22.29564 | 115.81046 | 27843 ft | 421 kts | 269° |
| 2026-05-08 05:03 | 22.29500 | 115.77904 | 27338 ft | 418 kts | 269° |
| 2026-05-08 05:04 | 22.29431 | 115.74776 | 26892 ft | 413 kts | 269° |
| 2026-05-08 05:04 | 22.29363 | 115.71763 | 26657 ft | 403 kts | 269° |
| 2026-05-08 05:04 | 22.29294 | 115.68738 | 26058 ft | 402 kts | 269° |
| 2026-05-08 05:04 | 22.29224 | 115.65726 | 25557 ft | 399 kts | 269° |
| 2026-05-08 05:05 | 22.29146 | 115.62738 | 24983 ft | 398 kts | 269° |
| 2026-05-08 05:05 | 22.29064 | 115.59748 | 24412 ft | 397 kts | 269° |
| 2026-05-08 05:05 | 22.28979 | 115.56770 | 23847 ft | 396 kts | 269° |
| 2026-05-08 05:05 | 22.28893 | 115.53807 | 23331 ft | 394 kts | 269° |
| 2026-05-08 05:06 | 22.28807 | 115.50852 | 22821 ft | 391 kts | 269° |
| 2026-05-08 05:06 | 22.28721 | 115.47925 | 22312 ft | 389 kts | 269° |
| 2026-05-08 05:06 | 22.28636 | 115.45052 | 21836 ft | 386 kts | 269° |
| 2026-05-08 05:06 | 22.28551 | 115.42173 | 21375 ft | 382 kts | 269° |
| 2026-05-08 05:07 | 22.28466 | 115.39305 | 20950 ft | 380 kts | 269° |
| 2026-05-08 05:07 | 22.28382 | 115.36465 | 20601 ft | 376 kts | 269° |
| 2026-05-08 05:07 | 22.28299 | 115.33653 | 20128 ft | 374 kts | 269° |
| 2026-05-08 05:07 | 22.28213 | 115.30861 | 19669 ft | 370 kts | 269° |
| 2026-05-08 05:08 | 22.28128 | 115.28088 | 19209 ft | 367 kts | 269° |
| 2026-05-08 05:08 | 22.28054 | 115.25345 | 18828 ft | 362 kts | 269° |
| 2026-05-08 05:08 | 22.27978 | 115.22644 | 18375 ft | 360 kts | 269° |
| 2026-05-08 05:08 | 22.27897 | 115.19947 | 17892 ft | 358 kts | 269° |
| 2026-05-08 05:09 | 22.27813 | 115.17263 | 17412 ft | 356 kts | 269° |
| 2026-05-08 05:09 | 22.27728 | 115.14594 | 16903 ft | 355 kts | 268° |
| 2026-05-08 05:09 | 22.27642 | 115.11933 | 16452 ft | 353 kts | 268° |
| 2026-05-08 05:09 | 22.27556 | 115.09299 | 16016 ft | 350 kts | 268° |
| 2026-05-08 05:10 | 22.27470 | 115.06685 | 15566 ft | 348 kts | 268° |
| 2026-05-08 05:10 | 22.27301 | 115.01537 | 14698 ft | 342 kts | 268° |
| 2026-05-08 05:10 | 22.27216 | 114.98970 | 14215 ft | 341 kts | 268° |
| 2026-05-08 05:11 | 22.27132 | 114.96418 | 13783 ft | 339 kts | 268° |
| 2026-05-08 05:11 | 22.27049 | 114.93887 | 13350 ft | 337 kts | 268° |
| 2026-05-08 05:11 | 22.26966 | 114.91367 | 12895 ft | 335 kts | 268° |
| 2026-05-08 05:11 | 22.26881 | 114.88857 | 12449 ft | 333 kts | 267° |
| 2026-05-08 05:12 | 22.26793 | 114.86364 | 12026 ft | 331 kts | 267° |
| 2026-05-08 05:12 | 22.26705 | 114.83885 | 11622 ft | 331 kts | 267° |
| 2026-05-08 05:12 | 22.26617 | 114.81393 | 11379 ft | 333 kts | 267° |
| 2026-05-08 05:12 | 22.26519 | 114.78920 | 11092 ft | 327 kts | 265° |
| 2026-05-08 05:13 | 22.26248 | 114.76547 | 11063 ft | 312 kts | 261° |
| 2026-05-08 05:13 | 22.25851 | 114.74299 | 10839 ft | 305 kts | 258° |
| 2026-05-08 05:13 | 22.25399 | 114.72105 | 10755 ft | 293 kts | 257° |
| 2026-05-08 05:13 | 22.24953 | 114.69991 | 10620 ft | 284 kts | 257° |
| 2026-05-08 05:14 | 22.24526 | 114.67926 | 10339 ft | 281 kts | 257° |
| 2026-05-08 05:14 | 22.24105 | 114.65870 | 10000 ft | 280 kts | 257° |
| 2026-05-08 05:14 | 22.23690 | 114.63824 | 9669 ft | 279 kts | 257° |
| 2026-05-08 05:14 | 22.23276 | 114.61775 | 9325 ft | 278 kts | 257° |
| 2026-05-08 05:15 | 22.22866 | 114.59738 | 8980 ft | 278 kts | 257° |
| 2026-05-08 05:15 | 22.22457 | 114.57702 | 8665 ft | 277 kts | 257° |
| 2026-05-08 05:15 | 22.22050 | 114.55672 | 8327 ft | 276 kts | 257° |
| 2026-05-08 05:15 | 22.21644 | 114.53652 | 8020 ft | 275 kts | 257° |
| 2026-05-08 05:16 | 22.21245 | 114.51667 | 7703 ft | 274 kts | 257° |
| 2026-05-08 05:16 | 22.20839 | 114.49643 | 7284 ft | 277 kts | 257° |
| 2026-05-08 05:16 | 22.20433 | 114.47621 | 7009 ft | 274 kts | 257° |
| 2026-05-08 05:16 | 22.20032 | 114.45623 | 6753 ft | 270 kts | 257° |
| 2026-05-08 05:17 | 22.19635 | 114.43647 | 6501 ft | 269 kts | 257° |
| 2026-05-08 05:17 | 22.19484 | 114.41640 | 6210 ft | 270 kts | 277° |
| 2026-05-08 05:17 | 22.20173 | 114.39787 | 5986 ft | 268 kts | 304° |
| 2026-05-08 05:17 | 22.21562 | 114.38478 | 5885 ft | 267 kts | 328° |
| 2026-05-08 05:18 | 22.23268 | 114.37672 | 5804 ft | 268 kts | 339° |
| 2026-05-08 05:18 | 22.25040 | 114.37072 | 5717 ft | 267 kts | 343° |
| 2026-05-08 05:18 | 22.26815 | 114.36555 | 5630 ft | 267 kts | 344° |
| 2026-05-08 05:18 | 22.28595 | 114.36018 | 5545 ft | 265 kts | 344° |
| 2026-05-08 05:19 | 22.30368 | 114.35472 | 5462 ft | 266 kts | 343° |
| 2026-05-08 05:19 | 22.32136 | 114.34867 | 5379 ft | 265 kts | 342° |
| 2026-05-08 05:19 | 22.33882 | 114.34229 | 5300 ft | 265 kts | 341° |
| 2026-05-08 05:19 | 22.35626 | 114.33583 | 5213 ft | 265 kts | 341° |
| 2026-05-08 05:20 | 22.37368 | 114.32939 | 5136 ft | 264 kts | 341° |
| 2026-05-08 05:20 | 22.39008 | 114.32068 | 5055 ft | 264 kts | 322° |
| 2026-05-08 05:20 | 22.40122 | 114.30529 | 4986 ft | 257 kts | 299° |
| 2026-05-08 05:20 | 22.40754 | 114.28774 | 4883 ft | 244 kts | 288° |
| 2026-05-08 05:21 | 22.41130 | 114.27048 | 4803 ft | 230 kts | 282° |
| 2026-05-08 05:21 | 22.41399 | 114.25397 | 4732 ft | 215 kts | 280° |
| 2026-05-08 05:21 | 22.41634 | 114.23883 | 4656 ft | 199 kts | 281° |
| 2026-05-08 05:21 | 22.41869 | 114.22456 | 4555 ft | 194 kts | 281° |
| 2026-05-08 05:22 | 22.42108 | 114.21008 | 4509 ft | 197 kts | 279° |
| 2026-05-08 05:22 | 22.42171 | 114.19520 | 4496 ft | 200 kts | 267° |
| 2026-05-08 05:22 | 22.41924 | 114.18040 | 4385 ft | 200 kts | 256° |
| 2026-05-08 05:22 | 22.41351 | 114.16681 | 4314 ft | 200 kts | 240° |
| 2026-05-08 05:23 | 22.40672 | 114.15368 | 4177 ft | 200 kts | 248° |
| 2026-05-08 05:23 | 22.40180 | 114.13969 | 4016 ft | 199 kts | 252° |
| 2026-05-08 05:23 | 22.39791 | 114.12531 | 3895 ft | 198 kts | 256° |
| 2026-05-08 05:23 | 22.39514 | 114.11080 | 3812 ft | 198 kts | 259° |
| 2026-05-08 05:24 | 22.39181 | 114.09627 | 3572 ft | 199 kts | 253° |
| 2026-05-08 05:24 | 22.38733 | 114.08219 | 3227 ft | 198 kts | 250° |
| 2026-05-08 05:24 | 22.38196 | 114.06854 | 2881 ft | 196 kts | 245° |
| 2026-05-08 05:24 | 22.37664 | 114.05540 | 2598 ft | 191 kts | 250° |
| 2026-05-08 05:25 | 22.37246 | 114.04161 | 2333 ft | 192 kts | 253° |
| 2026-05-08 05:25 | 22.36848 | 114.02816 | 2061 ft | 189 kts | 252° |
| 2026-05-08 05:25 | 22.36428 | 114.01471 | 1873 ft | 186 kts | 252° |
| 2026-05-08 05:25 | 22.36022 | 114.00205 | 1758 ft | 173 kts | 251° |
| 2026-05-08 05:26 | 22.35633 | 113.98996 | 1494 ft | 169 kts | 251° |
| 2026-05-08 05:26 | 22.35252 | 113.97816 | 1308 ft | 165 kts | 252° |
| 2026-05-08 05:26 | 22.34885 | 113.96678 | 1045 ft | 154 kts | 252° |
| 2026-05-08 05:26 | 22.34540 | 113.95610 | 832 ft | 148 kts | 251° |
| 2026-05-08 05:27 | 22.34205 | 113.94568 | 634 ft | 146 kts | 251° |
| 2026-05-08 05:27 | 22.33875 | 113.93539 | 464 ft | 145 kts | 251° |
| 2026-05-08 05:27 | 22.33540 | 113.92509 | 270 ft | 145 kts | 251° |
| 2026-05-08 05:27 | 22.33208 | 113.91485 | 79 ft | 144 kts | 251° |
| 2026-05-08 05:28 | 22.32902 | 113.90537 | 42 ft | 108 kts | 251° |
| 2026-05-08 05:28 | 22.32748 | 113.90059 | 42 ft | 34 kts | 251° |
| 2026-05-08 05:28 | 22.32675 | 113.89833 | 42 ft | 31 kts | 250° |
| 2026-05-08 05:28 | 22.32597 | 113.89637 | 42 ft | 27 kts | 234° |
| 2026-05-08 05:29 | 22.32490 | 113.89534 | 42 ft | 17 kts | 218° |
| 2026-05-08 05:29 | 22.32418 | 113.89489 | 42 ft | 11 kts | 179° |
| 2026-05-08 05:29 | 22.32349 | 113.89510 | 42 ft | 10 kts | 160° |
| 2026-05-08 05:29 | 22.32311 | 113.89561 | 42 ft | 10 kts | 78° |
| 2026-05-08 05:30 | 22.32335 | 113.89630 | 42 ft | 10 kts | 68° |
| 2026-05-08 05:30 | 22.32356 | 113.89696 | 42 ft | 9 kts | 73° |
| 2026-05-08 05:30 | 22.32376 | 113.89762 | 42 ft | 11 kts | 69° |
| 2026-05-08 05:30 | 22.32422 | 113.89902 | 42 ft | 22 kts | 71° |
| 2026-05-08 05:31 | 22.32471 | 113.90054 | 42 ft | 21 kts | 70° |
| 2026-05-08 05:31 | 22.32515 | 113.90189 | 42 ft | 13 kts | 71° |
| 2026-05-08 05:31 | 22.32538 | 113.90262 | 42 ft | 9 kts | 76° |
| 2026-05-08 05:31 | 22.32509 | 113.90312 | 42 ft | 8 kts | 154° |
| 2026-05-08 05:32 | 22.32448 | 113.90336 | 42 ft | 12 kts | 161° |
| 2026-05-08 05:32 | 22.32340 | 113.90377 | 42 ft | 21 kts | 161° |
| 2026-05-08 05:32 | 22.32176 | 113.90438 | 42 ft | 27 kts | 161° |
| 2026-05-08 05:32 | 22.32009 | 113.90501 | 42 ft | 24 kts | 160° |
| 2026-05-08 05:33 | 22.31860 | 113.90557 | 42 ft | 22 kts | 160° |
| 2026-05-08 05:33 | 22.31716 | 113.90611 | 42 ft | 21 kts | 161° |
| 2026-05-08 05:33 | 22.31583 | 113.90661 | 42 ft | 19 kts | 161° |
| 2026-05-08 05:33 | 22.31456 | 113.90678 | 42 ft | 18 kts | 175° |
| 2026-05-08 05:34 | 22.31337 | 113.90671 | 42 ft | 17 kts | 197° |
| 2026-05-08 05:34 | 22.31249 | 113.90606 | 42 ft | 13 kts | 225° |
| 2026-05-08 05:34 | 22.31186 | 113.90541 | 42 ft | 12 kts | 221° |
| 2026-05-08 05:34 | 22.31143 | 113.90503 | 42 ft | 10 kts | 213° |
| 2026-05-08 05:35 | 22.31079 | 113.90501 | 42 ft | 9 kts | 156° |
| 2026-05-08 05:35 | 22.31056 | 113.90563 | 42 ft | 9 kts | 84° |
| 2026-05-08 05:35 | 22.31077 | 113.90628 | 42 ft | 9 kts | 69° |
| 2026-05-08 05:35 | 22.31099 | 113.90692 | 42 ft | 10 kts | 70° |
| 2026-05-08 05:36 | 22.31123 | 113.90766 | 42 ft | 10 kts | 71° |
| 2026-05-08 05:36 | 22.31146 | 113.90839 | 42 ft | 11 kts | 70° |
| 2026-05-08 05:36 | 22.31170 | 113.90912 | 42 ft | 10 kts | 71° |
| 2026-05-08 05:36 | 22.31189 | 113.90983 | 42 ft | 10 kts | 95° |
| 2026-05-08 05:37 | 22.31148 | 113.91035 | 42 ft | 9 kts | 154° |
| 2026-05-08 05:37 | 22.31088 | 113.91057 | 42 ft | 9 kts | 162° |
| 2026-05-08 05:37 | 22.31030 | 113.91078 | 42 ft | 9 kts | 160° |
| 2026-05-08 05:37 | 22.30976 | 113.91099 | 42 ft | 8 kts | 160° |
| 2026-05-08 05:38 | 22.30923 | 113.91119 | 42 ft | 7 kts | 161° |
| 2026-05-08 05:38 | 22.30892 | 113.91117 | 42 ft | 4 kts | 210° |
| 2026-05-08 05:38 | 22.30875 | 113.91093 | 42 ft | 4 kts | 245° |
| 2026-05-08 05:38 | 22.30865 | 113.91065 | 42 ft | 4 kts | 250° |
| 2026-05-08 05:39 | 22.30856 | 113.91039 | 42 ft | 3 kts | 251° |
| 2026-05-08 05:39 | 22.30855 | 113.91034 | 42 ft | 0 kts | 251° |